CST,Max TemperatureF,Mean TemperatureF,Min TemperatureF,Max Dew PointF,MeanDew PointF,Min DewpointF,Max Humidity, Mean Humidity, Min Humidity, Max Sea Level PressureIn, Mean Sea Level PressureIn, Min Sea Level PressureIn, Max VisibilityMiles, Mean VisibilityMiles, Min VisibilityMiles, Max Wind SpeedMPH, Mean Wind SpeedMPH, Max Gust SpeedMPH,PrecipitationIn, CloudCover, Events, WindDirDegrees
2012-12-1,68,51,34,51,45,35,100,76,42,30.32,30.25,30.21,10,9,4,12,3,17,0.00,0,,191
2012-12-2,70,61,52,55,51,46,77,67,53,30.25,30.21,30.18,10,10,10,14,6,23,0.00,4,,199
2012-12-3,73,62,50,56,52,49,93,68,49,30.25,30.19,30.14,10,10,10,13,3,20,0.00,2,,200
2012-12-4,68,62,56,63,59,53,100,90,70,30.22,30.16,30.11,10,7,1,15,7,,0.33,6,Rain,221
2012-12-5,63,52,38,55,43,32,100,74,31,30.32,30.24,30.15,10,10,5,17,8,,0.01,4,Rain,27
2012-12-6,65,51,37,55,47,35,93,76,67,30.14,30.07,30.01,10,10,6,8,0,,0.00,5,Rain,170
2012-12-7,64,59,54,56,53,47,100,81,70,30.03,29.96,29.91,10,10,10,13,7,20,0.00,6,,193
2012-12-8,65,61,57,60,58,55,100,90,77,30.00,29.95,29.91,10,8,2,13,3,17,0.18,7,Rain,211
2012-12-9,70,64,57,63,60,56,100,88,70,29.98,29.92,29.76,10,8,2,16,6,21,0.09,5,Rain,194
2012-12-10,62,48,34,61,50,28,100,95,79,30.04,29.82,29.72,10,5,1,25,10,30,1.41,7,Rain-Thunderstorm,309
2012-12-11,41,34,25,28,26,24,96,73,55,30.29,30.18,30.05,10,10,10,10,6,,0.00,3,,15
2012-12-12,50,37,24,29,26,22,100,75,36,30.38,30.34,30.30,10,10,10,12,2,,0.00,0,,42
2012-12-13,54,38,22,30,25,20,96,76,29,30.44,30.37,30.32,10,10,9,0,0,,0.00,0,,-1
2012-12-14,59,42,24,40,34,23,100,78,42,30.38,30.27,30.14,10,10,10,7,1,,0.00,0,,183
2012-12-15,61,51,41,55,47,39,89,75,54,30.16,29.99,29.89,10,10,10,18,7,30,0.01,5,Rain,194
2012-12-16,63,58,50,59,56,50,100,89,81,29.88,29.83,29.74,10,10,10,16,9,29,0.00,5,Rain-Thunderstorm,195
2012-12-17,64,54,45,56,51,41,100,88,60,29.80,29.72,29.60,10,10,2,33,5,44,0.15,6,Rain,248
2012-12-18,57,48,39,41,38,35,89,70,42,29.97,29.91,29.82,10,10,10,10,5,,0.00,2,,225
2012-12-19,65,50,34,52,43,34,100,79,54,30.06,29.98,29.87,10,10,8,10,3,,0.00,0,,178
2012-12-20,59,48,36,55,44,23,100,78,51,29.94,29.68,29.54,10,7,1,26,16,36,0.51,7,Rain,216
2012-12-21,43,36,30,23,18,14,64,50,34,30.29,30.14,29.95,10,10,10,22,16,29,0.00,1,,302
2012-12-22,47,34,20,24,18,10,88,56,22,30.39,30.28,30.14,10,10,10,7,1,,0.00,0,,320
2012-12-23,52,40,28,47,40,22,100,89,52,30.14,30.03,29.91,10,6,1,10,3,,0.11,6,Rain,181
2012-12-24,60,53,45,54,49,41,100,92,67,30.01,29.88,29.81,10,8,2,13,4,,0.27,7,Rain,339
2012-12-25,41,38,36,41,36,33,100,92,82,30.10,29.91,29.53,10,6,2,21,11,30,0.58,8,Rain-Thunderstorm,32
2012-12-26,46,39,32,45,37,29,100,93,82,30.11,29.62,29.36,10,8,2,21,10,29,0.13,8,Rain-Snow,315
2012-12-27,36,34,32,29,28,27,82,79,73,30.22,30.16,30.11,10,10,10,12,6,,0.00,8,,341
2012-12-28,39,36,32,39,35,28,100,91,79,30.12,29.95,29.75,10,8,2,10,3,,0.05,6,Rain,119
2012-12-29,39,34,29,39,32,22,100,89,75,30.41,30.10,29.80,10,6,2,16,9,20,0.00,8,Rain-Snow,313
2012-12-30,39,30,21,26,23,20,96,78,51,30.56,30.47,30.39,10,10,10,10,3,,0.00,1,,340
2012-12-31,43,34,26,39,31,26,100,81,63,30.40,30.24,30.05,10,10,4,9,1,,0.00,5,Rain,173